Time;durP1;ratioP1;P1;durP2;ratioP2;P2;SDS_P1;SDS_P2;PMS_P1;PMS_P2;Temp;Humidity;BMP_temperature;BMP_pressure;BME280_temperature;BME280_humidity;BME280_pressure;Samples;Min_cycle;Max_cycle;Signal;HPM_P1;HPM_P2
2023/12/18 00:00:04;;;;;;;7.53;5.00;;;;;;;0.83;100.00;100510.53;4095289;28;20211;-46
2023/12/18 00:02:10;;;;;;;4.82;4.47;;;;;;;0.91;100.00;100510.66;4124785;28;20269;-46
2023/12/18 00:04:11;;;;;;;4.60;4.18;;;;;;;0.65;100.00;100504.09;4103386;28;20210;-45
2023/12/18 00:06:13;;;;;;;3.45;3.15;;;;;;;0.72;100.00;100494.47;4091004;28;20295;-45
2023/12/18 00:08:15;;;;;;;4.63;4.20;;;;;;;0.76;100.00;100501.31;4109515;28;20245;-45
2023/12/18 00:10:18;;;;;;;8.13;3.88;;;;;;;0.78;100.00;100493.91;4110242;28;20301;-45
2023/12/18 00:12:20;;;;;;;3.10;2.80;;;;;;;0.76;100.00;100501.31;4109971;28;20217;-45
2023/12/18 00:14:22;;;;;;;3.53;3.22;;;;;;;0.76;100.00;100500.44;4109389;28;20669;-45
2023/12/18 00:16:24;;;;;;;4.03;3.75;;;;;;;0.74;100.00;100495.19;4123819;28;20206;-45
2023/12/18 00:18:25;;;;;;;3.78;3.40;;;;;;;0.74;100.00;100492.50;4106770;28;20230;-45
2023/12/18 00:20:27;;;;;;;4.72;4.43;;;;;;;0.74;100.00;100500.56;4118700;28;20210;-46
2023/12/18 00:22:29;;;;;;;4.13;3.75;;;;;;;0.74;100.00;100502.44;4093639;28;20555;-45
2023/12/18 00:24:31;;;;;;;4.45;4.10;;;;;;;0.74;100.00;100497.03;4094873;28;20219;-45
2023/12/18 00:26:33;;;;;;;4.10;3.70;;;;;;;0.73;100.00;100493.47;4109077;28;20257;-45
2023/12/18 00:28:39;;;;;;;3.40;3.10;;;;;;;0.88;100.00;100499.31;4130890;28;20327;-46
2023/12/18 00:30:41;;;;;;;4.50;4.15;;;;;;;0.75;100.00;100488.78;4128329;28;20265;-46
2023/12/18 00:32:43;;;;;;;3.35;3.15;;;;;;;0.86;100.00;100483.28;4103860;28;20649;-45
2023/12/18 00:34:45;;;;;;;4.75;4.40;;;;;;;0.92;100.00;100480.03;4105833;28;20303;-45
2023/12/18 00:36:47;;;;;;;4.07;3.83;;;;;;;0.73;100.00;100469.25;4123494;28;20258;-46
2023/12/18 00:38:48;;;;;;;4.65;4.32;;;;;;;0.68;100.00;100465.28;4109205;28;20245;-45
2023/12/18 00:40:50;;;;;;;8.27;6.55;;;;;;;0.76;100.00;100468.09;4092622;28;20215;-45
2023/12/18 00:42:53;;;;;;;4.95;4.38;;;;;;;0.68;100.00;100466.09;4106335;28;20202;-46
2023/12/18 00:44:54;;;;;;;6.13;5.72;;;;;;;0.68;100.00;100460.72;4096069;28;20242;-45
2023/12/18 00:46:56;;;;;;;4.35;4.03;;;;;;;0.66;100.00;100462.72;4126105;28;20210;-46
2023/12/18 00:48:58;;;;;;;4.35;3.95;;;;;;;0.65;100.00;100461.00;4092591;28;20722;-46
2023/12/18 00:51:00;;;;;;;4.63;4.22;;;;;;;0.66;100.00;100473.47;4111014;28;20210;-45
2023/12/18 00:53:02;;;;;;;5.25;4.75;;;;;;;0.74;100.00;100468.25;4110189;28;20668;-45
2023/12/18 00:55:05;;;;;;;3.50;3.20;;;;;;;0.69;100.00;100473.19;4109996;28;20210;-46
2023/12/18 00:57:07;;;;;;;3.42;3.22;;;;;;;0.79;100.00;100457.03;4096030;28;20219;-45
2023/12/18 00:59:09;;;;;;;3.95;3.63;;;;;;;0.70;100.00;100463.28;4111741;28;20293;-46
2023/12/18 01:01:10;;;;;;;5.80;5.30;;;;;;;0.67;100.00;100459.03;4106996;28;20222;-46
2023/12/18 01:03:12;;;;;;;3.50;3.28;;;;;;;0.66;100.00;100467.22;4111087;28;20306;-46
2023/12/18 01:05:15;;;;;;;6.57;3.80;;;;;;;0.67;100.00;100464.41;4113223;28;20704;-46
2023/12/18 01:07:16;;;;;;;5.22;4.30;;;;;;;0.62;100.00;100461.28;4121276;28;20233;-45
2023/12/18 01:09:18;;;;;;;3.22;2.92;;;;;;;0.62;100.00;100461.28;4123040;28;20749;-45
2023/12/18 01:11:20;;;;;;;4.10;3.80;;;;;;;0.63;100.00;100462.13;4110952;28;20221;-45
2023/12/18 01:13:22;;;;;;;9.43;4.15;;;;;;;0.72;100.00;100462.16;4113271;28;20869;-45
2023/12/18 01:15:24;;;;;;;4.82;4.40;;;;;;;0.62;100.00;100461.28;4111340;28;20784;-45
2023/12/18 01:17:26;;;;;;;6.22;5.72;;;;;;;0.67;100.00;100450.94;4098758;28;20282;-46
2023/12/18 01:19:36;;;;;;;4.30;4.00;;;;;;;0.59;100.00;100445.41;4097257;28;21219;-46
2023/12/18 01:21:38;;;;;;;3.75;3.42;;;;;;;0.66;100.00;100445.69;4109854;28;20684;-46
2023/12/18 01:23:40;;;;;;;4.43;4.13;;;;;;;0.65;100.00;100450.25;4110669;28;20737;-46
2023/12/18 01:25:42;;;;;;;3.97;3.78;;;;;;;0.74;100.00;100443.16;4106195;28;20580;-45
2023/12/18 01:27:44;;;;;;;3.80;3.45;;;;;;;0.57;100.00;100442.00;4112665;28;20696;-46
2023/12/18 01:29:46;;;;;;;4.47;4.07;;;;;;;0.64;100.00;100437.75;4113120;28;20265;-45
2023/12/18 01:31:47;;;;;;;3.92;3.60;;;;;;;0.57;100.00;100442.00;4113700;28;20234;-45
2023/12/18 01:33:52;;;;;;;3.70;3.50;;;;;;;0.60;100.00;100436.34;4110375;28;20222;-45
2023/12/18 01:35:57;;;;;;;3.97;3.67;;;;;;;0.62;100.00;100434.34;4110144;28;20593;-45
2023/12/18 01:37:58;;;;;;;3.53;3.33;;;;;;;0.62;100.00;100438.91;4107573;28;20708;-45
2023/12/18 01:40:01;;;;;;;4.85;4.45;;;;;;;0.68;100.00;100433.78;4112635;28;20301;-45
2023/12/18 01:42:02;;;;;;;4.93;4.55;;;;;;;0.55;100.00;100432.38;4112096;28;20214;-46
2023/12/18 01:44:04;;;;;;;4.35;4.05;;;;;;;0.52;100.00;100436.19;4113551;28;20207;-45
2023/12/18 01:46:06;;;;;;;4.18;3.13;;;;;;;0.55;100.00;100443.97;4101846;28;20203;-46
2023/12/18 01:48:08;;;;;;;3.05;2.90;;;;;;;0.54;100.00;100444.97;4117429;28;20230;-46
2023/12/18 01:50:10;;;;;;;4.03;3.72;;;;;;;0.50;100.00;100437.31;4125537;28;20919;-46
2023/12/18 01:52:12;;;;;;;3.92;3.63;;;;;;;0.47;100.00;100441.13;4109162;28;20214;-45
2023/12/18 01:54:14;;;;;;;3.72;3.42;;;;;;;0.45;100.00;100436.88;4109361;28;20214;-45
2023/12/18 01:56:18;;;;;;;3.67;3.38;;;;;;;0.46;100.00;100433.19;4111433;28;20226;-45
2023/12/18 01:58:20;;;;;;;12.65;3.53;;;;;;;0.43;100.00;100431.66;4107079;28;20218;-45
2023/12/18 02:00:22;;;;;;;3.08;2.88;;;;;;;0.46;100.00;100434.03;4122213;28;20218;-46
2023/12/18 02:02:24;;;;;;;4.18;3.78;;;;;;;0.49;100.00;100433.75;4091732;28;20211;-46
2023/12/18 02:04:26;;;;;;;2.83;2.60;;;;;;;0.53;100.00;100428.94;4108499;28;20214;-47
2023/12/18 02:06:28;;;;;;;3.95;3.67;;;;;;;0.49;100.00;100432.91;4126586;28;20225;-46
2023/12/18 02:08:33;;;;;;;3.63;3.38;;;;;;;0.43;100.00;100433.47;4094641;28;20325;-45
2023/12/18 02:10:35;;;;;;;4.55;4.25;;;;;;;0.41;100.00;100441.69;4096595;28;20219;-45
2023/12/18 02:12:37;;;;;;;3.95;3.65;;;;;;;0.49;100.00;100439.13;4125553;28;20205;-46
2023/12/18 02:14:39;;;;;;;4.97;4.38;;;;;;;0.46;100.00;100439.44;4107669;28;20203;-45
2023/12/18 02:16:41;;;;;;;4.50;3.72;;;;;;;0.52;100.00;100444.25;4112008;28;21028;-45
2023/12/18 02:18:45;;;;;;;4.90;4.50;;;;;;;0.49;100.00;100441.84;4108946;28;20241;-46
2023/12/18 02:20:47;;;;;;;4.35;3.95;;;;;;;0.60;100.00;100436.34;4107627;28;22178;-46
2023/12/18 02:22:48;;;;;;;7.78;4.05;;;;;;;0.61;100.00;100438.03;4109951;28;20222;-45
2023/12/18 02:24:53;;;;;;;5.68;5.25;;;;;;;0.39;100.00;100438.28;4110872;28;20222;-45
2023/12/18 02:26:57;;;;;;;5.22;4.85;;;;;;;0.59;100.00;100440.03;4109475;28;20218;-46
2023/12/18 02:28:58;;;;;;;4.00;3.40;;;;;;;0.58;100.00;100437.47;4091901;28;20259;-46
2023/12/18 02:31:02;;;;;;;5.28;4.80;;;;;;;0.48;100.00;100433.91;4111627;28;20665;-46
2023/12/18 02:33:04;;;;;;;3.83;3.55;;;;;;;0.37;100.00;100424.13;4108725;28;20916;-45
2023/12/18 02:35:07;;;;;;;5.32;4.82;;;;;;;0.22;100.00;100430.88;4108024;28;20219;-45
2023/12/18 02:37:09;;;;;;;6.28;5.82;;;;;;;0.10;100.00;100421.22;4110328;28;20281;-48
2023/12/18 02:39:10;;;;;;;6.88;4.65;;;;;;;0.08;100.00;100417.81;4093078;28;20758;-45
2023/12/18 02:41:12;;;;;;;4.55;4.18;;;;;;;-0.01;100.00;100434.78;4112459;28;20246;-45
2023/12/18 02:43:14;;;;;;;9.10;6.37;;;;;;;-0.05;100.00;100422.56;4091934;28;20223;-45
2023/12/18 02:45:16;;;;;;;5.40;4.97;;;;;;;-0.06;100.00;100425.44;4109349;28;20908;-45
2023/12/18 02:47:18;;;;;;;5.38;4.88;;;;;;;0.17;100.00;100418.81;4124554;28;20280;-45
2023/12/18 02:49:20;;;;;;;6.13;5.13;;;;;;;-0.03;100.00;100415.25;4109497;28;20234;-45
2023/12/18 02:51:22;;;;;;;4.63;4.23;;;;;;;-0.05;100.00;100411.81;4097280;28;20247;-45
2023/12/18 02:53:23;;;;;;;4.67;4.37;;;;;;;-0.02;100.00;100427.72;4095792;28;20258;-45
2023/12/18 02:55:25;;;;;;;5.17;4.80;;;;;;;-0.11;100.00;100417.75;4126149;28;20213;-45
2023/12/18 02:57:27;;;;;;;4.43;4.13;;;;;;;-0.12;100.00;100416.03;4102858;28;20576;-46
2023/12/18 02:59:30;;;;;;;4.37;3.97;;;;;;;0.04;100.00;100411.00;4119093;28;20309;-45
2023/12/18 03:01:31;;;;;;;5.23;4.40;;;;;;;-0.08;100.00;100410.41;4108925;28;20602;-45
2023/12/18 03:03:33;;;;;;;6.20;5.80;;;;;;;-0.06;100.00;100415.50;4124572;28;20684;-46
2023/12/18 03:05:35;;;;;;;5.70;5.30;;;;;;;-0.08;100.00;100409.41;4120184;28;20210;-45
2023/12/18 03:07:37;;;;;;;4.53;4.27;;;;;;;-0.14;100.00;100405.56;4112917;28;20237;-45
2023/12/18 03:09:39;;;;;;;6.13;5.80;;;;;;;0.07;100.00;100401.81;4108747;28;20260;-45
2023/12/18 03:11:43;;;;;;;4.87;4.57;;;;;;;-0.21;100.00;100399.03;4107180;28;20214;-45
2023/12/18 03:13:45;;;;;;;5.80;5.25;;;;;;;-0.19;100.00;100397.06;4110766;28;20229;-45
2023/12/18 03:15:47;;;;;;;8.17;5.80;;;;;;;0.02;100.00;100401.38;4093498;28;20290;-45
2023/12/18 03:17:49;;;;;;;5.53;5.10;;;;;;;-0.08;100.00;100395.97;4090505;28;20231;-45
2023/12/18 03:19:51;;;;;;;4.50;4.20;;;;;;;-0.19;100.00;100392.53;4108687;28;20245;-45
2023/12/18 03:21:53;;;;;;;5.93;5.53;;;;;;;-0.01;100.00;100386.34;4111818;28;20242;-46
2023/12/18 03:23:55;;;;;;;4.27;4.07;;;;;;;0.04;100.00;100394.88;4097080;28;20538;-46
2023/12/18 03:25:57;;;;;;;4.00;3.70;;;;;;;0.06;100.00;100395.56;4110650;28;20217;-46
2023/12/18 03:27:59;;;;;;;8.83;5.60;;;;;;;0.13;100.00;100391.34;4121390;28;20226;-45
2023/12/18 03:30:01;;;;;;;5.90;5.47;;;;;;;0.22;100.00;100387.81;4112309;28;20254;-45
2023/12/18 03:32:03;;;;;;;5.10;4.60;;;;;;;0.08;100.00;100390.91;4108762;28;20817;-46
2023/12/18 03:34:05;;;;;;;5.45;4.90;;;;;;;0.00;100.00;100379.97;4096704;28;20708;-46
2023/12/18 03:36:08;;;;;;;4.22;3.92;;;;;;;-0.04;100.00;100373.16;4122179;28;20210;-45
2023/12/18 03:38:10;;;;;;;4.13;3.87;;;;;;;-0.06;100.00;100377.00;4104358;28;20238;-45
2023/12/18 03:40:12;;;;;;;6.15;5.75;;;;;;;-0.15;100.00;100374.28;4108766;28;20211;-45
2023/12/18 03:42:13;;;;;;;6.00;4.67;;;;;;;-0.01;100.00;100386.34;4122662;28;20210;-45
2023/12/18 03:44:15;;;;;;;4.77;4.40;;;;;;;-0.30;100.00;100378.31;4109745;28;20309;-45
2023/12/18 03:46:17;;;;;;;4.43;4.13;;;;;;;-0.21;100.00;100382.91;4108090;28;20670;-46
2023/12/18 03:48:19;;;;;;;6.83;6.33;;;;;;;-0.01;100.00;100386.34;4093852;28;20231;-46
2023/12/18 03:50:21;;;;;;;3.97;3.67;;;;;;;0.09;100.00;100381.81;4095501;28;20442;-46
2023/12/18 03:52:23;;;;;;;6.78;6.28;;;;;;;0.10;100.00;100383.56;4110441;28;20219;-45
2023/12/18 03:54:25;;;;;;;5.07;4.67;;;;;;;0.11;100.00;100379.00;4108412;28;20215;-46
2023/12/18 03:56:27;;;;;;;6.17;5.50;;;;;;;-0.03;100.00;100371.34;4111549;28;20218;-45
2023/12/18 03:58:28;;;;;;;5.70;5.30;;;;;;;0.11;100.00;100379.00;4091976;28;20242;-46
2023/12/18 04:00:30;;;;;;;5.43;4.97;;;;;;;0.12;100.00;100370.81;4091477;28;20886;-46
2023/12/18 04:02:32;;;;;;;5.55;5.13;;;;;;;0.08;100.00;100369.38;4109713;28;20215;-45
2023/12/18 04:04:34;;;;;;;5.50;5.07;;;;;;;0.18;100.00;100370.25;4104652;28;20661;-46
2023/12/18 04:06:36;;;;;;;6.60;6.10;;;;;;;0.17;100.00;100367.69;4106282;28;20222;-45
2023/12/18 04:08:39;;;;;;;3.92;3.72;;;;;;;0.16;100.00;100372.22;4110814;28;20230;-45
2023/12/18 04:10:41;;;;;;;4.68;4.28;;;;;;;0.00;100.00;100365.69;4111553;28;20703;-46
2023/12/18 04:12:45;;;;;;;6.32;5.90;;;;;;;0.04;100.00;100373.34;4094153;28;20219;-44
2023/12/18 04:14:47;;;;;;;4.35;4.03;;;;;;;0.10;100.00;100370.09;4108874;28;20261;-47
2023/12/18 04:16:49;;;;;;;5.90;5.50;;;;;;;0.14;100.00;100370.69;4112748;28;20282;-45
2023/12/18 04:18:51;;;;;;;5.28;4.85;;;;;;;0.18;100.00;100378.31;4113800;28;20344;-45
2023/12/18 04:20:53;;;;;;;5.60;5.07;;;;;;;0.16;100.00;100374.91;4092768;28;20219;-45
2023/12/18 04:22:55;;;;;;;4.80;4.13;;;;;;;0.07;100.00;100372.22;4116361;28;20210;-46
2023/12/18 04:24:57;;;;;;;5.07;4.57;;;;;;;-0.01;100.00;100363.97;4109182;28;20703;-45
2023/12/18 04:26:58;;;;;;;6.68;6.22;;;;;;;0.09;100.00;100375.63;4115820;28;20342;-46
2023/12/18 04:29:00;;;;;;;4.55;4.25;;;;;;;0.08;100.00;100366.69;4110312;28;20223;-47
2023/12/18 04:31:02;;;;;;;4.38;3.97;;;;;;;-0.02;100.00;100365.81;4113676;28;20293;-45
2023/12/18 04:33:04;;;;;;;3.53;3.37;;;;;;;-0.13;100.00;100374.00;4115423;28;20209;-45
2023/12/18 04:35:06;;;;;;;5.77;4.23;;;;;;;-0.08;100.00;100375.44;4108444;28;20210;-45
2023/12/18 04:37:09;;;;;;;5.45;5.05;;;;;;;0.05;100.00;100380.44;4112338;28;20249;-46
2023/12/18 04:39:11;;;;;;;4.15;3.88;;;;;;;0.01;100.00;100373.59;4128403;28;20222;-45
2023/12/18 04:41:18;;;;;;;3.47;3.28;;;;;;;0.01;100.00;100378.97;4112353;28;20557;-47
2023/12/18 04:43:20;;;;;;;4.68;4.25;;;;;;;0.03;100.00;100376.16;4110177;28;20262;-46
2023/12/18 04:45:22;;;;;;;4.28;3.97;;;;;;;0.06;100.00;100381.25;4096877;28;20219;-45
2023/12/18 04:47:23;;;;;;;4.80;4.43;;;;;;;0.08;100.00;100380.13;4094502;28;20237;-46
2023/12/18 04:49:25;;;;;;;4.30;4.00;;;;;;;0.05;100.00;100383.13;4095454;28;20262;-45
2023/12/18 04:51:27;;;;;;;3.95;3.55;;;;;;;0.13;100.00;100380.56;4096598;28;20215;-44
2023/12/18 04:53:31;;;;;;;6.78;5.68;;;;;;;0.12;100.00;100370.81;4112090;28;20260;-45
2023/12/18 04:55:34;;;;;;;5.40;4.90;;;;;;;0.05;100.00;100379.56;4111338;28;20203;-45
2023/12/18 04:57:36;;;;;;;4.68;4.43;;;;;;;-0.05;100.00;100379.53;4112214;28;20230;-47
2023/12/18 04:59:38;;;;;;;3.97;3.67;;;;;;;0.00;100.00;100390.75;4093803;28;20294;-44
2023/12/18 05:01:40;;;;;;;3.50;3.20;;;;;;;-0.04;100.00;100401.91;4110215;28;20210;-45
2023/12/18 05:03:42;;;;;;;5.15;4.57;;;;;;;0.04;100.00;100394.00;4111973;28;20258;-45
2023/12/18 05:05:44;;;;;;;5.93;4.88;;;;;;;0.00;100.00;100393.44;4126376;28;20214;-45
2023/12/18 05:07:46;;;;;;;4.55;4.25;;;;;;;0.05;100.00;100391.19;4129660;28;20774;-45
2023/12/18 05:09:47;;;;;;;4.45;3.88;;;;;;;0.10;100.00;100394.31;4111094;28;20329;-45
2023/12/18 05:11:50;;;;;;;5.28;3.95;;;;;;;0.14;100.00;100384.97;4110552;28;20206;-45
2023/12/18 05:13:52;;;;;;;4.55;4.25;;;;;;;0.26;100.00;100389.25;4113239;28;20214;-45
2023/12/18 05:15:53;;;;;;;4.90;4.50;;;;;;;0.22;100.00;100387.81;4116728;28;20212;-47
2023/12/18 05:17:58;;;;;;;5.55;5.00;;;;;;;0.16;100.00;100387.53;4094891;28;20231;-45
2023/12/18 05:20:00;;;;;;;5.13;4.72;;;;;;;-0.03;100.00;100390.16;4110035;28;20297;-44
2023/12/18 05:22:02;;;;;;;4.53;4.25;;;;;;;-0.16;100.00;100391.41;4108212;28;20207;-44
2023/12/18 05:24:04;;;;;;;4.85;4.43;;;;;;;-0.24;100.00;100378.63;4123065;28;20225;-45
2023/12/18 05:26:06;;;;;;;5.17;4.67;;;;;;;-0.25;100.00;100381.44;4113436;28;20221;-44
2023/12/18 05:28:08;;;;;;;6.63;5.97;;;;;;;-0.31;100.00;100390.06;4121822;28;20238;-45
2023/12/18 05:30:10;;;;;;;5.03;4.60;;;;;;;-0.24;100.00;100388.53;4111615;28;20234;-45
2023/12/18 05:32:12;;;;;;;4.80;4.20;;;;;;;-0.21;100.00;100391.78;4096110;28;20243;-44
2023/12/18 05:34:14;;;;;;;5.93;5.43;;;;;;;-0.34;100.00;100396.56;4112533;28;20222;-45
2023/12/18 05:36:16;;;;;;;7.00;5.47;;;;;;;-0.23;100.00;100400.97;4110782;28;20214;-44
2023/12/18 05:38:17;;;;;;;5.17;4.77;;;;;;;-0.07;100.00;100403.03;4094107;28;20243;-45
2023/12/18 05:40:19;;;;;;;5.00;4.60;;;;;;;-0.14;100.00;100410.94;4107730;28;20246;-45
2023/12/18 05:42:21;;;;;;;6.57;6.03;;;;;;;-0.11;100.00;100406.97;4113747;28;20218;-47
2023/12/18 05:44:23;;;;;;;5.23;4.73;;;;;;;-0.17;100.00;100406.69;4121786;28;20626;-44
2023/12/18 05:46:25;;;;;;;3.87;3.67;;;;;;;-0.08;100.00;100408.53;4108462;28;20250;-45
2023/12/18 05:48:27;;;;;;;5.63;5.13;;;;;;;-0.03;100.00;100401.78;4097585;28;20342;-44
2023/12/18 05:50:29;;;;;;;4.50;4.10;;;;;;;-0.01;100.00;100405.19;4113489;28;20365;-45
2023/12/18 05:52:31;;;;;;;6.20;5.75;;;;;;;-0.02;100.00;100399.94;4122311;28;20225;-45
2023/12/18 05:54:32;;;;;;;4.83;4.37;;;;;;;-0.11;100.00;100406.16;4099023;28;20673;-44
2023/12/18 05:56:34;;;;;;;3.80;3.60;;;;;;;0.04;100.00;100399.38;4108417;28;20699;-44
2023/12/18 05:58:36;;;;;;;3.63;3.33;;;;;;;0.08;100.00;100406.22;4106062;28;20227;-44
2023/12/18 06:00:38;;;;;;;4.13;3.75;;;;;;;-0.16;100.00;100399.47;4123274;28;20203;-44
2023/12/18 06:02:40;;;;;;;5.20;4.70;;;;;;;-0.06;100.00;100404.75;4110493;28;20593;-45
2023/12/18 06:04:43;;;;;;;4.78;4.40;;;;;;;-0.06;100.00;100404.75;4090191;28;21112;-44
2023/12/18 06:06:45;;;;;;;4.23;3.93;;;;;;;-0.09;100.00;100411.41;4110040;28;20203;-44
2023/12/18 06:08:47;;;;;;;5.67;5.03;;;;;;;-0.16;100.00;100407.56;4114248;28;20230;-44
2023/12/18 06:10:49;;;;;;;4.60;4.30;;;;;;;-0.34;100.00;100403.78;4107461;28;20238;-45
2023/12/18 06:12:51;;;;;;;9.30;5.57;;;;;;;-0.43;100.00;100405.44;4106900;28;20218;-45
2023/12/18 06:14:53;;;;;;;5.60;5.20;;;;;;;-0.42;100.00;100407.16;4105146;28;20210;-44
2023/12/18 06:16:55;;;;;;;3.63;3.33;;;;;;;-0.35;100.00;100404.78;4126114;28;20206;-45
2023/12/18 06:18:59;;;;;;;5.20;4.90;;;;;;;-0.29;100.00;100402.38;4113061;28;20230;-45
2023/12/18 06:21:03;;;;;;;4.30;3.93;;;;;;;-0.29;100.00;100406.94;4123853;28;20297;-45
2023/12/18 06:23:05;;;;;;;3.67;3.47;;;;;;;-0.31;100.00;100395.44;4111680;28;20221;-45
2023/12/18 06:25:07;;;;;;;4.90;4.47;;;;;;;-0.29;100.00;100396.19;4097951;28;20222;-47
2023/12/18 06:27:09;;;;;;;6.50;6.10;;;;;;;-0.44;100.00;100398.38;4093720;28;20219;-44
2023/12/18 06:29:11;;;;;;;2.60;2.40;;;;;;;-0.34;100.00;100399.25;4091224;28;20295;-44
2023/12/18 06:31:13;;;;;;;3.73;3.53;;;;;;;-0.38;100.00;100403.22;4109014;28;20692;-45
2023/12/18 06:33:15;;;;;;;4.23;3.93;;;;;;;-0.39;100.00;100395.28;4089041;28;20238;-45
2023/12/18 06:35:17;;;;;;;4.70;4.43;;;;;;;-0.37;100.00;100398.66;4107561;28;20223;-45
2023/12/18 06:37:19;;;;;;;5.40;5.00;;;;;;;-0.42;100.00;100395.56;4092166;28;20246;-45
2023/12/18 06:39:21;;;;;;;7.17;6.57;;;;;;;-0.54;100.00;100399.31;4126816;28;20691;-45
2023/12/18 06:41:22;;;;;;;4.70;4.30;;;;;;;-0.60;100.00;100394.47;4108362;28;20250;-45
2023/12/18 06:43:25;;;;;;;4.27;3.87;;;;;;;-0.58;100.00;100396.03;4088047;28;20243;-45
2023/12/18 06:45:27;;;;;;;5.10;4.80;;;;;;;-0.52;100.00;100400.88;4122404;28;20409;-45
2023/12/18 06:47:29;;;;;;;4.57;4.27;;;;;;;-0.46;100.00;100400.34;4093165;28;20368;-45
2023/12/18 06:49:31;;;;;;;4.43;4.03;;;;;;;-0.37;100.00;100412.13;4093101;28;20224;-45
2023/12/18 06:51:33;;;;;;;5.27;4.80;;;;;;;-0.27;100.00;100407.66;4113548;28;20226;-45
2023/12/18 06:53:34;;;;;;;4.23;3.93;;;;;;;-0.24;100.00;100412.75;4095216;28;20757;-45
2023/12/18 06:55:38;;;;;;;4.83;4.43;;;;;;;-0.29;100.00;100399.69;4096201;28;20216;-45
2023/12/18 06:57:40;;;;;;;5.60;5.20;;;;;;;-0.25;100.00;100409.22;4112904;28;20842;-45
2023/12/18 06:59:42;;;;;;;4.88;4.47;;;;;;;-0.16;100.00;100408.38;4095571;28;20240;-45
2023/12/18 07:01:43;;;;;;;4.47;4.17;;;;;;;-0.15;100.00;100414.63;4112000;28;20211;-45
2023/12/18 07:03:45;;;;;;;4.03;3.73;;;;;;;-0.20;100.00;100406.13;4109523;28;20214;-45
2023/12/18 07:05:47;;;;;;;5.00;4.60;;;;;;;-0.20;100.00;100406.13;4112830;28;20286;-45
2023/12/18 07:07:50;;;;;;;2.72;2.58;;;;;;;-0.21;100.00;100409.78;4114339;28;20261;-45
2023/12/18 07:09:53;;;;;;;3.13;2.92;;;;;;;-0.14;100.00;100416.31;4123298;28;20654;-46
2023/12/18 07:11:55;;;;;;;3.65;3.35;;;;;;;-0.16;100.00;100410.25;4094275;28;20242;-45
2023/12/18 07:13:56;;;;;;;5.57;5.15;;;;;;;-0.17;100.00;100421.97;4091957;28;20211;-45
2023/12/18 07:15:58;;;;;;;5.53;5.10;;;;;;;-0.19;100.00;100413.19;4113639;28;20207;-45
2023/12/18 07:18:00;;;;;;;5.20;4.80;;;;;;;-0.09;100.00;100408.72;4099211;28;20227;-45
2023/12/18 07:20:03;;;;;;;4.85;4.55;;;;;;;-0.57;100.00;100413.00;4116122;28;20310;-45
2023/12/18 07:22:05;;;;;;;5.23;4.20;;;;;;;-0.63;100.00;100400.09;4130732;28;20222;-45
2023/12/18 07:24:07;;;;;;;3.70;3.40;;;;;;;-0.53;100.00;100401.00;4113655;28;20265;-45
2023/12/18 07:26:12;;;;;;;4.37;3.97;;;;;;;-0.50;100.00;100396.22;4110845;28;20929;-45
2023/12/18 07:28:14;;;;;;;3.77;3.47;;;;;;;-0.37;100.00;100404.91;4107144;28;20801;-45
2023/12/18 07:30:16;;;;;;;5.33;4.93;;;;;;;-0.51;100.00;100407.09;4121202;28;20731;-45
2023/12/18 07:32:18;;;;;;;4.90;4.40;;;;;;;-0.47;100.00;100408.53;4111034;28;20217;-45
2023/12/18 07:34:19;;;;;;;4.97;4.67;;;;;;;-0.39;100.00;100406.03;4119704;28;20218;-45
2023/12/18 07:36:21;;;;;;;6.03;5.53;;;;;;;-0.41;100.00;100413.38;4123467;28;20233;-44
2023/12/18 07:38:23;;;;;;;3.97;3.47;;;;;;;-0.25;100.00;100411.03;4110691;28;20238;-46
2023/12/18 07:40:25;;;;;;;4.20;3.97;;;;;;;-0.41;100.00;100414.22;4112265;28;20622;-47
2023/12/18 07:42:27;;;;;;;4.40;4.00;;;;;;;-0.40;100.00;100401.63;4107413;28;20238;-45
2023/12/18 07:44:29;;;;;;;6.28;5.78;;;;;;;-0.41;100.00;100402.63;4095472;28;20320;-45
2023/12/18 07:46:30;;;;;;;6.43;5.87;;;;;;;-0.41;100.00;100403.47;4110191;28;20215;-45
2023/12/18 07:48:32;;;;;;;5.40;5.10;;;;;;;-0.38;100.00;100396.97;4111016;28;20234;-44
2023/12/18 07:50:34;;;;;;;4.60;4.20;;;;;;;-0.27;100.00;100404.94;4110845;28;20686;-45
2023/12/18 07:52:36;;;;;;;4.60;4.20;;;;;;;-0.31;100.00;100412.44;4092689;28;20254;-46
2023/12/18 07:54:38;;;;;;;5.30;4.80;;;;;;;-0.25;100.00;100416.41;4109789;28;20214;-45
2023/12/18 07:56:40;;;;;;;3.83;3.63;;;;;;;-0.17;100.00;100414.75;4108591;28;20202;-45
2023/12/18 07:58:41;;;;;;;3.50;3.30;;;;;;;-0.25;100.00;100409.22;4125410;28;20301;-45
2023/12/18 08:00:43;;;;;;;4.47;4.10;;;;;;;-0.22;100.00;100414.31;4126577;28;20201;-45
2023/12/18 08:02:45;;;;;;;5.00;4.70;;;;;;;-0.11;100.00;100411.53;4108511;28;20245;-44
2023/12/18 08:04:47;;;;;;;4.07;3.03;;;;;;;-0.24;100.00;100415.44;4113600;28;20874;-45
2023/12/18 08:06:52;;;;;;;4.57;4.28;;;;;;;-0.19;100.00;100407.81;4113374;28;20211;-45
2023/12/18 08:08:54;;;;;;;3.83;3.63;;;;;;;-0.20;100.00;100406.13;4108876;28;20222;-45
2023/12/18 08:10:55;;;;;;;3.77;3.50;;;;;;;-0.14;100.00;100398.34;4107462;28;20234;-45
2023/12/18 08:12:57;;;;;;;6.30;4.57;;;;;;;-0.24;100.00;100404.66;4108061;28;20220;-45
2023/12/18 08:19:33;;;;;;;5.70;5.20;;;;;;;-0.20;100.00;100406.13;2478556;26;20711;-52
2023/12/18 08:21:35;;;;;;;4.95;4.53;;;;;;;-0.27;100.00;100392.34;4152551;28;20301;-51
2023/12/18 08:23:36;;;;;;;5.07;4.78;;;;;;;-0.15;100.00;100406.56;4152750;28;20205;-50
2023/12/18 08:25:38;;;;;;;3.92;3.60;;;;;;;-0.09;100.00;100400.63;4153703;28;20209;-50
2023/12/18 08:27:40;;;;;;;5.90;5.25;;;;;;;0.21;100.00;100399.56;4144817;28;20292;-51
2023/12/18 08:29:42;;;;;;;2.97;2.78;;;;;;;0.71;100.00;100395.81;4132962;28;20686;-51
2023/12/18 08:31:44;;;;;;;3.72;3.42;;;;;;;1.72;100.00;100402.25;4137894;28;20256;-51
2023/12/18 08:33:46;;;;;;;5.38;4.97;;;;;;;1.99;100.00;100397.72;4132149;28;20288;-52
2023/12/18 08:35:47;;;;;;;4.47;3.70;;;;;;;2.33;100.00;100406.91;4123645;28;20304;-52
2023/12/18 08:37:49;;;;;;;3.88;3.58;;;;;;;2.58;100.00;100406.19;4133234;28;20280;-52
2023/12/18 08:39:51;;;;;;;4.95;4.50;;;;;;;2.97;100.00;100407.56;4135307;28;20296;-52
2023/12/18 08:41:53;;;;;;;4.45;4.05;;;;;;;2.46;100.00;100412.78;4133087;28;20595;-51
2023/12/18 08:43:54;;;;;;;4.65;4.35;;;;;;;2.31;100.00;100403.53;4137083;28;20256;-51
2023/12/18 08:46:06;;;;;;;4.32;3.92;;;;;;;1.83;100.00;100399.38;4134083;28;20268;-52
2023/12/18 08:48:08;;;;;;;4.70;4.30;;;;;;;1.03;100.00;100400.88;4132441;28;20597;-52
2023/12/18 08:50:10;;;;;;;5.93;4.43;;;;;;;1.01;100.00;100401.00;4128455;28;20722;-52
2023/12/18 08:52:11;;;;;;;2.67;2.47;;;;;;;0.79;100.00;100398.63;4133270;28;20221;-52
2023/12/18 08:54:13;;;;;;;5.30;4.90;;;;;;;0.34;100.00;100397.47;4135723;28;20213;-52
2023/12/18 08:56:15;;;;;;;4.72;4.20;;;;;;;0.63;100.00;100398.34;4138759;28;20201;-52
2023/12/18 08:58:16;;;;;;;5.70;5.25;;;;;;;0.50;100.00;100392.41;4120715;28;20292;-52
2023/12/18 09:00:18;;;;;;;4.65;4.35;;;;;;;0.37;100.00;100397.19;4124902;28;20570;-52
2023/12/18 09:02:20;;;;;;;3.70;3.40;;;;;;;0.39;100.00;100392.53;4141969;28;20774;-52
2023/12/18 09:04:22;;;;;;;3.60;3.30;;;;;;;0.48;100.00;100388.13;4135327;28;20292;-51
2023/12/18 09:06:24;;;;;;;4.30;4.00;;;;;;;0.51;100.00;100388.72;4138285;28;20209;-52
2023/12/18 09:08:26;;;;;;;3.58;3.22;;;;;;;0.52;100.00;100395.78;4134747;28;20652;-52
2023/12/18 09:10:29;;;;;;;5.20;4.70;;;;;;;0.66;100.00;100392.69;4131804;28;20710;-51
2023/12/18 09:12:30;;;;;;;17.67;3.58;;;;;;;0.66;100.00;100391.81;4116143;28;20210;-51
2023/12/18 09:14:32;;;;;;;2.50;2.35;;;;;;;0.69;100.00;100400.47;4135102;28;20217;-52
2023/12/18 09:16:35;;;;;;;4.35;4.07;;;;;;;0.69;100.00;100397.75;4138757;28;20205;-51
2023/12/18 09:18:39;;;;;;;4.45;3.75;;;;;;;0.77;100.00;100394.38;4139218;28;21190;-51
2023/12/18 09:20:41;;;;;;;4.60;4.28;;;;;;;0.88;100.00;100389.69;4138122;28;20253;-52
2023/12/18 09:22:46;;;;;;;4.03;3.83;;;;;;;0.98;100.00;100387.84;4140169;28;20299;-52
2023/12/18 09:24:47;;;;;;;4.10;3.80;;;;;;;0.89;100.00;100383.28;4132578;28;20209;-51
2023/12/18 09:26:49;;;;;;;4.68;4.28;;;;;;;0.82;100.00;100387.56;4137820;28;20600;-51
2023/12/18 09:28:51;;;;;;;4.32;3.92;;;;;;;1.02;100.00;100383.84;4135413;28;20234;-51